sensor_id;sensor_type;location;lat;lon;timestamp;P1;durP1;ratioP1;P2;durP2;ratioP2
55330;SDS011;58851;42.984;20.336;2023-03-31T00:01:37;103.60;;;52.33;;
55330;SDS011;58851;42.984;20.336;2023-03-31T00:04:09;86.95;;;40.25;;
55330;SDS011;58851;42.984;20.336;2023-03-31T00:06:37;64.10;;;34.13;;
55330;SDS011;58851;42.984;20.336;2023-03-31T00:09:15;79.78;;;37.75;;
55330;SDS011;58851;42.984;20.336;2023-03-31T00:11:45;61.60;;;29.13;;
55330;SDS011;58851;42.984;20.336;2023-03-31T00:14:15;37.97;;;19.90;;
55330;SDS011;58851;42.984;20.336;2023-03-31T00:16:42;31.45;;;18.42;;
55330;SDS011;58851;42.984;20.336;2023-03-31T00:19:09;26.48;;;11.98;;
55330;SDS011;58851;42.984;20.336;2023-03-31T00:21:42;34.92;;;16.25;;
55330;SDS011;58851;42.984;20.336;2023-03-31T00:24:10;36.05;;;20.92;;
55330;SDS011;58851;42.984;20.336;2023-03-31T00:26:36;64.40;;;35.55;;
55330;SDS011;58851;42.984;20.336;2023-03-31T00:29:03;51.55;;;30.55;;
55330;SDS011;58851;42.984;20.336;2023-03-31T00:31:30;42.53;;;24.48;;
55330;SDS011;58851;42.984;20.336;2023-03-31T00:33:56;41.50;;;23.90;;
55330;SDS011;58851;42.984;20.336;2023-03-31T00:36:22;35.58;;;21.58;;
55330;SDS011;58851;42.984;20.336;2023-03-31T00:38:58;30.73;;;17.20;;
55330;SDS011;58851;42.984;20.336;2023-03-31T00:41:32;21.27;;;11.82;;
55330;SDS011;58851;42.984;20.336;2023-03-31T00:46:33;27.02;;;13.90;;
55330;SDS011;58851;42.984;20.336;2023-03-31T00:52:21;31.05;;;18.00;;
55330;SDS011;58851;42.984;20.336;2023-03-31T00:54:50;46.72;;;27.08;;
55330;SDS011;58851;42.984;20.336;2023-03-31T00:57:23;46.08;;;25.40;;
55330;SDS011;58851;42.984;20.336;2023-03-31T00:59:52;50.05;;;26.92;;
55330;SDS011;58851;42.984;20.336;2023-03-31T01:02:23;61.58;;;28.25;;
55330;SDS011;58851;42.984;20.336;2023-03-31T01:04:53;51.58;;;25.77;;
55330;SDS011;58851;42.984;20.336;2023-03-31T01:10:00;46.78;;;26.85;;
55330;SDS011;58851;42.984;20.336;2023-03-31T01:12:29;57.15;;;33.30;;
55330;SDS011;58851;42.984;20.336;2023-03-31T01:14:58;28.08;;;14.43;;
55330;SDS011;58851;42.984;20.336;2023-03-31T01:17:25;25.08;;;13.50;;
55330;SDS011;58851;42.984;20.336;2023-03-31T01:41:43;25.45;;;14.25;;
55330;SDS011;58851;42.984;20.336;2023-03-31T01:52:08;36.85;;;22.42;;
55330;SDS011;58851;42.984;20.336;2023-03-31T01:57:30;34.08;;;19.45;;
55330;SDS011;58851;42.984;20.336;2023-03-31T02:00:10;29.95;;;17.30;;
55330;SDS011;58851;42.984;20.336;2023-03-31T02:02:46;27.88;;;16.70;;
55330;SDS011;58851;42.984;20.336;2023-03-31T02:05:20;32.88;;;18.65;;
55330;SDS011;58851;42.984;20.336;2023-03-31T02:10:17;37.08;;;20.80;;
55330;SDS011;58851;42.984;20.336;2023-03-31T02:12:45;62.60;;;35.33;;
55330;SDS011;58851;42.984;20.336;2023-03-31T02:15:14;71.63;;;42.05;;
55330;SDS011;58851;42.984;20.336;2023-03-31T02:17:46;77.25;;;42.70;;
55330;SDS011;58851;42.984;20.336;2023-03-31T02:20:16;68.72;;;39.20;;
55330;SDS011;58851;42.984;20.336;2023-03-31T02:22:46;70.68;;;41.97;;
55330;SDS011;58851;42.984;20.336;2023-03-31T02:25:16;56.63;;;35.83;;
55330;SDS011;58851;42.984;20.336;2023-03-31T02:27:48;54.45;;;32.60;;
55330;SDS011;58851;42.984;20.336;2023-03-31T02:30:21;54.75;;;31.17;;
55330;SDS011;58851;42.984;20.336;2023-03-31T02:32:53;64.88;;;39.58;;
55330;SDS011;58851;42.984;20.336;2023-03-31T02:35:20;43.22;;;30.80;;
55330;SDS011;58851;42.984;20.336;2023-03-31T02:37:47;42.90;;;27.30;;
55330;SDS011;58851;42.984;20.336;2023-03-31T02:40:19;37.35;;;25.45;;
55330;SDS011;58851;42.984;20.336;2023-03-31T02:42:46;36.25;;;23.83;;
55330;SDS011;58851;42.984;20.336;2023-03-31T02:48:10;46.63;;;29.00;;
55330;SDS011;58851;42.984;20.336;2023-03-31T02:53:47;52.88;;;38.17;;
55330;SDS011;58851;42.984;20.336;2023-03-31T02:59:28;85.63;;;52.10;;
55330;SDS011;58851;42.984;20.336;2023-03-31T03:02:09;74.18;;;43.55;;
55330;SDS011;58851;42.984;20.336;2023-03-31T03:13:46;52.10;;;26.85;;
55330;SDS011;58851;42.984;20.336;2023-03-31T03:21:45;61.25;;;35.60;;
55330;SDS011;58851;42.984;20.336;2023-03-31T03:24:12;64.55;;;38.72;;
55330;SDS011;58851;42.984;20.336;2023-03-31T03:26:42;61.05;;;39.00;;
55330;SDS011;58851;42.984;20.336;2023-03-31T03:29:11;73.88;;;38.47;;
55330;SDS011;58851;42.984;20.336;2023-03-31T03:31:40;59.72;;;36.75;;
55330;SDS011;58851;42.984;20.336;2023-03-31T03:34:06;57.13;;;34.67;;
55330;SDS011;58851;42.984;20.336;2023-03-31T03:36:34;59.78;;;37.58;;
55330;SDS011;58851;42.984;20.336;2023-03-31T03:39:01;51.13;;;29.75;;
55330;SDS011;58851;42.984;20.336;2023-03-31T03:41:28;44.47;;;29.30;;
55330;SDS011;58851;42.984;20.336;2023-03-31T03:43:55;47.70;;;27.27;;
55330;SDS011;58851;42.984;20.336;2023-03-31T03:46:21;47.28;;;26.13;;
55330;SDS011;58851;42.984;20.336;2023-03-31T03:48:47;61.67;;;31.40;;
55330;SDS011;58851;42.984;20.336;2023-03-31T03:51:12;48.33;;;26.52;;
55330;SDS011;58851;42.984;20.336;2023-03-31T03:53:38;47.60;;;26.15;;
55330;SDS011;58851;42.984;20.336;2023-03-31T03:56:04;59.45;;;30.45;;
55330;SDS011;58851;42.984;20.336;2023-03-31T03:58:30;54.20;;;28.50;;
55330;SDS011;58851;42.984;20.336;2023-03-31T04:00:55;47.38;;;26.15;;
55330;SDS011;58851;42.984;20.336;2023-03-31T04:03:21;56.60;;;30.60;;
55330;SDS011;58851;42.984;20.336;2023-03-31T04:05:47;59.10;;;31.95;;
55330;SDS011;58851;42.984;20.336;2023-03-31T04:08:14;66.28;;;33.53;;
55330;SDS011;58851;42.984;20.336;2023-03-31T04:10:43;57.15;;;30.23;;
55330;SDS011;58851;42.984;20.336;2023-03-31T04:13:10;57.35;;;32.05;;
55330;SDS011;58851;42.984;20.336;2023-03-31T04:15:36;50.22;;;26.90;;
55330;SDS011;58851;42.984;20.336;2023-03-31T04:18:02;56.22;;;31.38;;
55330;SDS011;58851;42.984;20.336;2023-03-31T04:20:28;52.80;;;27.35;;
55330;SDS011;58851;42.984;20.336;2023-03-31T04:22:55;38.67;;;23.08;;
55330;SDS011;58851;42.984;20.336;2023-03-31T04:25:21;40.25;;;26.55;;
55330;SDS011;58851;42.984;20.336;2023-03-31T04:27:50;48.05;;;28.17;;
55330;SDS011;58851;42.984;20.336;2023-03-31T04:30:20;48.22;;;27.40;;
55330;SDS011;58851;42.984;20.336;2023-03-31T04:32:58;46.47;;;27.67;;
55330;SDS011;58851;42.984;20.336;2023-03-31T04:35:27;49.67;;;31.05;;
55330;SDS011;58851;42.984;20.336;2023-03-31T04:38:13;50.65;;;30.20;;
55330;SDS011;58851;42.984;20.336;2023-03-31T04:40:47;45.42;;;29.08;;
55330;SDS011;58851;42.984;20.336;2023-03-31T04:43:14;34.65;;;22.80;;
55330;SDS011;58851;42.984;20.336;2023-03-31T04:45:41;41.60;;;23.40;;
55330;SDS011;58851;42.984;20.336;2023-03-31T04:48:06;41.65;;;25.05;;
55330;SDS011;58851;42.984;20.336;2023-03-31T04:50:33;42.58;;;24.58;;
55330;SDS011;58851;42.984;20.336;2023-03-31T04:52:59;40.30;;;25.40;;
55330;SDS011;58851;42.984;20.336;2023-03-31T04:55:24;39.97;;;24.77;;
55330;SDS011;58851;42.984;20.336;2023-03-31T04:57:51;44.20;;;24.50;;
55330;SDS011;58851;42.984;20.336;2023-03-31T05:00:17;43.13;;;24.08;;
55330;SDS011;58851;42.984;20.336;2023-03-31T05:02:43;50.13;;;29.70;;
55330;SDS011;58851;42.984;20.336;2023-03-31T05:05:09;85.25;;;42.92;;
55330;SDS011;58851;42.984;20.336;2023-03-31T05:07:36;47.00;;;28.40;;
55330;SDS011;58851;42.984;20.336;2023-03-31T05:10:02;54.47;;;27.58;;
55330;SDS011;58851;42.984;20.336;2023-03-31T05:12:29;49.67;;;28.85;;
55330;SDS011;58851;42.984;20.336;2023-03-31T05:14:59;35.10;;;20.98;;
55330;SDS011;58851;42.984;20.336;2023-03-31T05:17:25;28.52;;;14.48;;
55330;SDS011;58851;42.984;20.336;2023-03-31T05:19:52;21.52;;;11.85;;
55330;SDS011;58851;42.984;20.336;2023-03-31T05:22:17;28.20;;;14.80;;
55330;SDS011;58851;42.984;20.336;2023-03-31T05:24:45;25.67;;;15.32;;
55330;SDS011;58851;42.984;20.336;2023-03-31T05:27:11;35.28;;;19.00;;
55330;SDS011;58851;42.984;20.336;2023-03-31T05:29:37;46.03;;;24.92;;
55330;SDS011;58851;42.984;20.336;2023-03-31T05:32:03;60.35;;;30.40;;
55330;SDS011;58851;42.984;20.336;2023-03-31T05:34:29;126.00;;;60.90;;
55330;SDS011;58851;42.984;20.336;2023-03-31T05:36:54;149.45;;;69.57;;
55330;SDS011;58851;42.984;20.336;2023-03-31T05:39:20;118.20;;;60.38;;
55330;SDS011;58851;42.984;20.336;2023-03-31T05:41:46;93.00;;;53.90;;
55330;SDS011;58851;42.984;20.336;2023-03-31T05:44:12;97.40;;;58.97;;
55330;SDS011;58851;42.984;20.336;2023-03-31T05:46:38;94.05;;;56.65;;
55330;SDS011;58851;42.984;20.336;2023-03-31T05:49:03;110.95;;;67.55;;
55330;SDS011;58851;42.984;20.336;2023-03-31T05:51:31;122.75;;;71.78;;
55330;SDS011;58851;42.984;20.336;2023-03-31T05:53:57;128.50;;;69.53;;
55330;SDS011;58851;42.984;20.336;2023-03-31T05:56:22;108.45;;;63.35;;
55330;SDS011;58851;42.984;20.336;2023-03-31T05:58:48;113.18;;;66.20;;
55330;SDS011;58851;42.984;20.336;2023-03-31T06:01:15;115.60;;;65.65;;
55330;SDS011;58851;42.984;20.336;2023-03-31T06:03:47;122.20;;;68.13;;
55330;SDS011;58851;42.984;20.336;2023-03-31T06:06:13;112.40;;;55.67;;
55330;SDS011;58851;42.984;20.336;2023-03-31T06:08:41;89.10;;;54.20;;
55330;SDS011;58851;42.984;20.336;2023-03-31T06:11:09;79.07;;;44.55;;
55330;SDS011;58851;42.984;20.336;2023-03-31T06:13:37;82.93;;;49.22;;
55330;SDS011;58851;42.984;20.336;2023-03-31T06:16:04;80.70;;;46.22;;
55330;SDS011;58851;42.984;20.336;2023-03-31T06:18:31;81.20;;;46.03;;
55330;SDS011;58851;42.984;20.336;2023-03-31T06:20:58;80.72;;;46.63;;
55330;SDS011;58851;42.984;20.336;2023-03-31T06:23:24;75.32;;;41.00;;
55330;SDS011;58851;42.984;20.336;2023-03-31T06:25:50;75.63;;;40.65;;
55330;SDS011;58851;42.984;20.336;2023-03-31T06:28:16;130.00;;;76.53;;
55330;SDS011;58851;42.984;20.336;2023-03-31T06:30:43;95.70;;;53.30;;
55330;SDS011;58851;42.984;20.336;2023-03-31T06:33:08;84.38;;;48.88;;
55330;SDS011;58851;42.984;20.336;2023-03-31T06:35:38;94.93;;;53.40;;
55330;SDS011;58851;42.984;20.336;2023-03-31T06:38:04;78.30;;;50.30;;
55330;SDS011;58851;42.984;20.336;2023-03-31T06:40:31;91.43;;;52.33;;
55330;SDS011;58851;42.984;20.336;2023-03-31T06:42:56;85.35;;;52.88;;
55330;SDS011;58851;42.984;20.336;2023-03-31T06:45:23;75.15;;;50.45;;
55330;SDS011;58851;42.984;20.336;2023-03-31T06:47:49;84.40;;;55.10;;
55330;SDS011;58851;42.984;20.336;2023-03-31T06:50:15;88.20;;;53.47;;
55330;SDS011;58851;42.984;20.336;2023-03-31T06:52:41;94.50;;;59.60;;
55330;SDS011;58851;42.984;20.336;2023-03-31T06:55:07;82.45;;;50.75;;
55330;SDS011;58851;42.984;20.336;2023-03-31T06:57:33;66.15;;;42.92;;
55330;SDS011;58851;42.984;20.336;2023-03-31T07:00:00;65.95;;;39.63;;
55330;SDS011;58851;42.984;20.336;2023-03-31T07:02:26;66.07;;;39.55;;
55330;SDS011;58851;42.984;20.336;2023-03-31T07:04:52;62.17;;;38.08;;
55330;SDS011;58851;42.984;20.336;2023-03-31T07:07:17;68.03;;;36.65;;
55330;SDS011;58851;42.984;20.336;2023-03-31T07:09:43;72.10;;;39.35;;
55330;SDS011;58851;42.984;20.336;2023-03-31T07:12:09;70.68;;;39.88;;
55330;SDS011;58851;42.984;20.336;2023-03-31T07:14:35;60.65;;;39.78;;
55330;SDS011;58851;42.984;20.336;2023-03-31T07:17:01;17.85;;;10.25;;
55330;SDS011;58851;42.984;20.336;2023-03-31T07:19:27;11.15;;;6.13;;
55330;SDS011;58851;42.984;20.336;2023-03-31T07:21:53;24.30;;;17.67;;
55330;SDS011;58851;42.984;20.336;2023-03-31T07:24:20;28.40;;;19.20;;
55330;SDS011;58851;42.984;20.336;2023-03-31T07:26:46;12.13;;;6.70;;
55330;SDS011;58851;42.984;20.336;2023-03-31T07:29:12;19.63;;;9.35;;
55330;SDS011;58851;42.984;20.336;2023-03-31T07:31:38;14.52;;;7.47;;
55330;SDS011;58851;42.984;20.336;2023-03-31T07:34:04;11.40;;;7.07;;
55330;SDS011;58851;42.984;20.336;2023-03-31T07:36:30;9.98;;;4.82;;
55330;SDS011;58851;42.984;20.336;2023-03-31T07:38:55;13.07;;;6.72;;
55330;SDS011;58851;42.984;20.336;2023-03-31T07:41:21;8.57;;;5.65;;
55330;SDS011;58851;42.984;20.336;2023-03-31T07:43:48;15.23;;;6.18;;
55330;SDS011;58851;42.984;20.336;2023-03-31T07:46:15;9.18;;;5.65;;
55330;SDS011;58851;42.984;20.336;2023-03-31T07:48:46;12.98;;;6.53;;
55330;SDS011;58851;42.984;20.336;2023-03-31T07:51:14;9.40;;;6.43;;
55330;SDS011;58851;42.984;20.336;2023-03-31T07:53:40;8.45;;;4.28;;
55330;SDS011;58851;42.984;20.336;2023-03-31T07:56:06;9.50;;;4.88;;
55330;SDS011;58851;42.984;20.336;2023-03-31T07:58:32;9.75;;;5.13;;
55330;SDS011;58851;42.984;20.336;2023-03-31T08:00:58;9.93;;;5.55;;
55330;SDS011;58851;42.984;20.336;2023-03-31T08:03:25;8.98;;;4.35;;
55330;SDS011;58851;42.984;20.336;2023-03-31T08:05:51;8.95;;;5.47;;
55330;SDS011;58851;42.984;20.336;2023-03-31T08:08:18;5.72;;;3.15;;
55330;SDS011;58851;42.984;20.336;2023-03-31T08:10:44;6.20;;;3.20;;
55330;SDS011;58851;42.984;20.336;2023-03-31T08:13:09;9.88;;;4.88;;
55330;SDS011;58851;42.984;20.336;2023-03-31T08:15:35;7.30;;;3.92;;
55330;SDS011;58851;42.984;20.336;2023-03-31T08:18:02;7.30;;;4.05;;
55330;SDS011;58851;42.984;20.336;2023-03-31T08:20:28;20.20;;;5.57;;
55330;SDS011;58851;42.984;20.336;2023-03-31T08:22:54;6.88;;;4.18;;
55330;SDS011;58851;42.984;20.336;2023-03-31T08:25:20;11.18;;;6.10;;
55330;SDS011;58851;42.984;20.336;2023-03-31T08:27:46;13.02;;;6.22;;
55330;SDS011;58851;42.984;20.336;2023-03-31T08:30:15;12.88;;;6.05;;
55330;SDS011;58851;42.984;20.336;2023-03-31T08:32:43;8.75;;;5.93;;
55330;SDS011;58851;42.984;20.336;2023-03-31T08:35:09;11.35;;;5.55;;
55330;SDS011;58851;42.984;20.336;2023-03-31T08:37:38;11.95;;;5.65;;
55330;SDS011;58851;42.984;20.336;2023-03-31T08:40:04;10.25;;;5.28;;
55330;SDS011;58851;42.984;20.336;2023-03-31T08:42:44;11.93;;;5.25;;
55330;SDS011;58851;42.984;20.336;2023-03-31T08:48:23;9.48;;;4.47;;
55330;SDS011;58851;42.984;20.336;2023-03-31T08:50:57;10.07;;;4.82;;
55330;SDS011;58851;42.984;20.336;2023-03-31T08:53:31;11.35;;;5.03;;
55330;SDS011;58851;42.984;20.336;2023-03-31T08:56:03;9.98;;;3.75;;
55330;SDS011;58851;42.984;20.336;2023-03-31T09:01:09;7.32;;;3.25;;
55330;SDS011;58851;42.984;20.336;2023-03-31T09:06:47;9.43;;;5.00;;
55330;SDS011;58851;42.984;20.336;2023-03-31T09:09:39;12.20;;;4.97;;
55330;SDS011;58851;42.984;20.336;2023-03-31T09:12:16;8.93;;;5.03;;
55330;SDS011;58851;42.984;20.336;2023-03-31T09:17:26;9.43;;;3.25;;
55330;SDS011;58851;42.984;20.336;2023-03-31T09:22:34;11.90;;;5.30;;
55330;SDS011;58851;42.984;20.336;2023-03-31T09:25:09;10.50;;;5.30;;
55330;SDS011;58851;42.984;20.336;2023-03-31T09:27:47;9.90;;;5.70;;
55330;SDS011;58851;42.984;20.336;2023-03-31T09:30:28;20.67;;;7.35;;
55330;SDS011;58851;42.984;20.336;2023-03-31T09:35:42;11.73;;;5.85;;
55330;SDS011;58851;42.984;20.336;2023-03-31T09:38:10;8.63;;;4.60;;
55330;SDS011;58851;42.984;20.336;2023-03-31T09:40:37;15.30;;;5.97;;
55330;SDS011;58851;42.984;20.336;2023-03-31T09:43:04;8.38;;;4.15;;
55330;SDS011;58851;42.984;20.336;2023-03-31T09:45:33;9.95;;;6.07;;
55330;SDS011;58851;42.984;20.336;2023-03-31T09:48:03;13.35;;;5.38;;
55330;SDS011;58851;42.984;20.336;2023-03-31T09:50:46;6.82;;;4.05;;
55330;SDS011;58851;42.984;20.336;2023-03-31T09:53:21;10.98;;;3.45;;
55330;SDS011;58851;42.984;20.336;2023-03-31T09:56:03;5.78;;;2.45;;
55330;SDS011;58851;42.984;20.336;2023-03-31T09:58:38;9.35;;;3.80;;
55330;SDS011;58851;42.984;20.336;2023-03-31T10:01:06;7.82;;;5.38;;
55330;SDS011;58851;42.984;20.336;2023-03-31T10:03:42;9.27;;;6.25;;
55330;SDS011;58851;42.984;20.336;2023-03-31T10:06:20;8.70;;;3.38;;
55330;SDS011;58851;42.984;20.336;2023-03-31T10:08:51;6.18;;;3.67;;
55330;SDS011;58851;42.984;20.336;2023-03-31T10:11:21;10.07;;;4.72;;
55330;SDS011;58851;42.984;20.336;2023-03-31T10:13:49;3.50;;;1.92;;
55330;SDS011;58851;42.984;20.336;2023-03-31T10:17:24;6.07;;;3.20;;
55330;SDS011;58851;42.984;20.336;2023-03-31T10:19:25;9.90;;;4.35;;
55330;SDS011;58851;42.984;20.336;2023-03-31T10:22:03;7.10;;;3.67;;
55330;SDS011;58851;42.984;20.336;2023-03-31T10:24:50;15.40;;;6.18;;
55330;SDS011;58851;42.984;20.336;2023-03-31T10:29:45;7.28;;;2.55;;
55330;SDS011;58851;42.984;20.336;2023-03-31T10:32:16;4.13;;;2.05;;
55330;SDS011;58851;42.984;20.336;2023-03-31T10:34:47;5.80;;;2.78;;
55330;SDS011;58851;42.984;20.336;2023-03-31T10:37:16;4.43;;;2.83;;
55330;SDS011;58851;42.984;20.336;2023-03-31T10:39:46;6.30;;;2.55;;
55330;SDS011;58851;42.984;20.336;2023-03-31T10:42:21;10.82;;;3.50;;
55330;SDS011;58851;42.984;20.336;2023-03-31T10:44:49;18.88;;;11.57;;
55330;SDS011;58851;42.984;20.336;2023-03-31T10:49:46;10.70;;;2.83;;
55330;SDS011;58851;42.984;20.336;2023-03-31T10:52:25;10.38;;;4.45;;
55330;SDS011;58851;42.984;20.336;2023-03-31T10:54:52;6.82;;;2.72;;
55330;SDS011;58851;42.984;20.336;2023-03-31T11:00:26;9.60;;;5.70;;
55330;SDS011;58851;42.984;20.336;2023-03-31T11:16:43;11.60;;;3.40;;
55330;SDS011;58851;42.984;20.336;2023-03-31T11:21:59;8.05;;;3.58;;
55330;SDS011;58851;42.984;20.336;2023-03-31T11:24:52;5.03;;;3.20;;
55330;SDS011;58851;42.984;20.336;2023-03-31T11:27:26;6.10;;;3.17;;
55330;SDS011;58851;42.984;20.336;2023-03-31T11:36:01;7.00;;;3.00;;
55330;SDS011;58851;42.984;20.336;2023-03-31T11:44:13;6.32;;;4.18;;
55330;SDS011;58851;42.984;20.336;2023-03-31T11:46:53;5.22;;;2.25;;
55330;SDS011;58851;42.984;20.336;2023-03-31T11:49:25;8.43;;;4.55;;
55330;SDS011;58851;42.984;20.336;2023-03-31T11:52:02;10.18;;;4.05;;
55330;SDS011;58851;42.984;20.336;2023-03-31T11:54:38;7.28;;;3.35;;
55330;SDS011;58851;42.984;20.336;2023-03-31T11:57:16;7.32;;;3.05;;
55330;SDS011;58851;42.984;20.336;2023-03-31T11:59:52;8.52;;;4.53;;
55330;SDS011;58851;42.984;20.336;2023-03-31T12:05:18;7.07;;;4.03;;
55330;SDS011;58851;42.984;20.336;2023-03-31T12:11:24;5.57;;;3.17;;
55330;SDS011;58851;42.984;20.336;2023-03-31T12:19:06;7.18;;;4.28;;
55330;SDS011;58851;42.984;20.336;2023-03-31T12:21:51;8.57;;;2.80;;
55330;SDS011;58851;42.984;20.336;2023-03-31T12:24:23;4.68;;;2.00;;
55330;SDS011;58851;42.984;20.336;2023-03-31T12:29:27;7.03;;;3.22;;
55330;SDS011;58851;42.984;20.336;2023-03-31T12:31:54;6.72;;;2.95;;
55330;SDS011;58851;42.984;20.336;2023-03-31T12:34:22;8.05;;;3.22;;
55330;SDS011;58851;42.984;20.336;2023-03-31T12:42:13;6.60;;;2.78;;
55330;SDS011;58851;42.984;20.336;2023-03-31T12:47:52;8.27;;;3.22;;
55330;SDS011;58851;42.984;20.336;2023-03-31T12:50:35;6.43;;;2.55;;
55330;SDS011;58851;42.984;20.336;2023-03-31T12:55:57;7.88;;;3.35;;
55330;SDS011;58851;42.984;20.336;2023-03-31T13:08:51;9.00;;;4.13;;
55330;SDS011;58851;42.984;20.336;2023-03-31T13:11:18;3.67;;;1.85;;
55330;SDS011;58851;42.984;20.336;2023-03-31T13:14:10;21.02;;;12.30;;
55330;SDS011;58851;42.984;20.336;2023-03-31T13:16:36;13.30;;;3.50;;
55330;SDS011;58851;42.984;20.336;2023-03-31T13:19:02;16.70;;;4.82;;
55330;SDS011;58851;42.984;20.336;2023-03-31T13:21:28;6.03;;;3.90;;
55330;SDS011;58851;42.984;20.336;2023-03-31T13:23:58;6.03;;;3.63;;
55330;SDS011;58851;42.984;20.336;2023-03-31T13:34:34;18.35;;;9.45;;
55330;SDS011;58851;42.984;20.336;2023-03-31T13:45:47;14.05;;;5.28;;
55330;SDS011;58851;42.984;20.336;2023-03-31T13:48:29;9.40;;;5.07;;
55330;SDS011;58851;42.984;20.336;2023-03-31T13:56:22;10.43;;;4.80;;
55330;SDS011;58851;42.984;20.336;2023-03-31T14:07:06;11.63;;;6.65;;
55330;SDS011;58851;42.984;20.336;2023-03-31T14:09:39;11.77;;;4.35;;
55330;SDS011;58851;42.984;20.336;2023-03-31T14:14:57;14.55;;;6.13;;
55330;SDS011;58851;42.984;20.336;2023-03-31T14:17:25;15.27;;;7.13;;
55330;SDS011;58851;42.984;20.336;2023-03-31T14:22:50;8.60;;;3.35;;
55330;SDS011;58851;42.984;20.336;2023-03-31T14:25:35;13.80;;;7.18;;
55330;SDS011;58851;42.984;20.336;2023-03-31T14:39:06;5.40;;;3.00;;
55330;SDS011;58851;42.984;20.336;2023-03-31T14:41:35;8.60;;;4.13;;
55330;SDS011;58851;42.984;20.336;2023-03-31T14:44:03;9.57;;;3.53;;
55330;SDS011;58851;42.984;20.336;2023-03-31T14:46:31;9.60;;;5.95;;
55330;SDS011;58851;42.984;20.336;2023-03-31T14:49:05;24.98;;;15.90;;
55330;SDS011;58851;42.984;20.336;2023-03-31T14:51:42;18.67;;;15.43;;
55330;SDS011;58851;42.984;20.336;2023-03-31T14:54:16;7.85;;;3.35;;
55330;SDS011;58851;42.984;20.336;2023-03-31T14:56:44;12.48;;;6.10;;
55330;SDS011;58851;42.984;20.336;2023-03-31T14:59:16;14.90;;;10.00;;
55330;SDS011;58851;42.984;20.336;2023-03-31T15:01:55;15.23;;;6.57;;
55330;SDS011;58851;42.984;20.336;2023-03-31T15:04:24;17.98;;;7.93;;
55330;SDS011;58851;42.984;20.336;2023-03-31T15:06:53;11.38;;;6.00;;
55330;SDS011;58851;42.984;20.336;2023-03-31T15:09:20;24.88;;;8.43;;
55330;SDS011;58851;42.984;20.336;2023-03-31T15:11:58;11.57;;;8.52;;
55330;SDS011;58851;42.984;20.336;2023-03-31T15:14:28;10.95;;;7.43;;
55330;SDS011;58851;42.984;20.336;2023-03-31T15:16:59;21.30;;;12.57;;
55330;SDS011;58851;42.984;20.336;2023-03-31T15:19:29;20.73;;;12.40;;
55330;SDS011;58851;42.984;20.336;2023-03-31T15:22:09;12.00;;;6.47;;
55330;SDS011;58851;42.984;20.336;2023-03-31T15:24:41;7.47;;;5.30;;
55330;SDS011;58851;42.984;20.336;2023-03-31T15:27:14;12.45;;;6.18;;
55330;SDS011;58851;42.984;20.336;2023-03-31T15:29:59;15.50;;;7.80;;
55330;SDS011;58851;42.984;20.336;2023-03-31T15:32:39;12.25;;;8.82;;
55330;SDS011;58851;42.984;20.336;2023-03-31T15:35:05;19.58;;;10.10;;
55330;SDS011;58851;42.984;20.336;2023-03-31T15:37:41;21.48;;;11.98;;
55330;SDS011;58851;42.984;20.336;2023-03-31T15:40:16;21.13;;;14.48;;
55330;SDS011;58851;42.984;20.336;2023-03-31T15:42:45;22.13;;;15.30;;
55330;SDS011;58851;42.984;20.336;2023-03-31T15:45:55;28.10;;;16.73;;
55330;SDS011;58851;42.984;20.336;2023-03-31T15:48:33;17.27;;;9.67;;
55330;SDS011;58851;42.984;20.336;2023-03-31T15:51:05;22.67;;;10.50;;
55330;SDS011;58851;42.984;20.336;2023-03-31T15:53:42;13.48;;;8.85;;
55330;SDS011;58851;42.984;20.336;2023-03-31T16:01:45;16.90;;;6.97;;
55330;SDS011;58851;42.984;20.336;2023-03-31T16:04:13;14.65;;;10.00;;
55330;SDS011;58851;42.984;20.336;2023-03-31T16:06:54;12.80;;;8.32;;
55330;SDS011;58851;42.984;20.336;2023-03-31T16:15:22;16.15;;;9.75;;
55330;SDS011;58851;42.984;20.336;2023-03-31T16:18:07;10.88;;;6.53;;
55330;SDS011;58851;42.984;20.336;2023-03-31T16:20:37;27.77;;;17.27;;
55330;SDS011;58851;42.984;20.336;2023-03-31T16:23:19;27.50;;;12.77;;
55330;SDS011;58851;42.984;20.336;2023-03-31T16:25:48;28.17;;;18.30;;
55330;SDS011;58851;42.984;20.336;2023-03-31T16:31:27;19.00;;;13.02;;
55330;SDS011;58851;42.984;20.336;2023-03-31T16:34:01;14.90;;;8.05;;
55330;SDS011;58851;42.984;20.336;2023-03-31T16:36:29;14.88;;;6.53;;
55330;SDS011;58851;42.984;20.336;2023-03-31T16:38:55;31.58;;;20.77;;
55330;SDS011;58851;42.984;20.336;2023-03-31T16:41:23;13.55;;;8.05;;
55330;SDS011;58851;42.984;20.336;2023-03-31T16:43:51;41.97;;;22.75;;
55330;SDS011;58851;42.984;20.336;2023-03-31T16:46:20;52.05;;;33.63;;
55330;SDS011;58851;42.984;20.336;2023-03-31T16:48:47;11.90;;;5.13;;
55330;SDS011;58851;42.984;20.336;2023-03-31T16:51:13;60.25;;;45.53;;
55330;SDS011;58851;42.984;20.336;2023-03-31T16:53:39;13.88;;;8.32;;
55330;SDS011;58851;42.984;20.336;2023-03-31T16:56:05;34.25;;;22.33;;
55330;SDS011;58851;42.984;20.336;2023-03-31T16:58:32;17.52;;;9.77;;
55330;SDS011;58851;42.984;20.336;2023-03-31T17:00:58;8.60;;;5.13;;
55330;SDS011;58851;42.984;20.336;2023-03-31T17:03:24;12.18;;;5.38;;
55330;SDS011;58851;42.984;20.336;2023-03-31T17:05:51;13.20;;;7.57;;
55330;SDS011;58851;42.984;20.336;2023-03-31T17:08:19;17.27;;;10.73;;
55330;SDS011;58851;42.984;20.336;2023-03-31T17:11:20;28.17;;;13.40;;
55330;SDS011;58851;42.984;20.336;2023-03-31T17:13:39;18.02;;;10.80;;
55330;SDS011;58851;42.984;20.336;2023-03-31T17:16:06;15.25;;;7.25;;
55330;SDS011;58851;42.984;20.336;2023-03-31T17:18:32;20.70;;;13.30;;
55330;SDS011;58851;42.984;20.336;2023-03-31T17:21:02;27.23;;;16.50;;
55330;SDS011;58851;42.984;20.336;2023-03-31T17:23:31;31.13;;;17.52;;
55330;SDS011;58851;42.984;20.336;2023-03-31T17:25:57;17.45;;;8.88;;
55330;SDS011;58851;42.984;20.336;2023-03-31T17:28:23;16.65;;;10.05;;
55330;SDS011;58851;42.984;20.336;2023-03-31T17:30:49;17.75;;;10.10;;
55330;SDS011;58851;42.984;20.336;2023-03-31T17:33:15;20.38;;;12.38;;
55330;SDS011;58851;42.984;20.336;2023-03-31T17:35:42;15.60;;;9.18;;
55330;SDS011;58851;42.984;20.336;2023-03-31T17:38:08;13.77;;;7.63;;
55330;SDS011;58851;42.984;20.336;2023-03-31T17:40:36;19.23;;;9.45;;
55330;SDS011;58851;42.984;20.336;2023-03-31T17:43:02;11.70;;;7.40;;
55330;SDS011;58851;42.984;20.336;2023-03-31T17:45:28;16.27;;;8.48;;
55330;SDS011;58851;42.984;20.336;2023-03-31T17:47:56;14.07;;;10.07;;
55330;SDS011;58851;42.984;20.336;2023-03-31T17:50:22;15.90;;;9.55;;
55330;SDS011;58851;42.984;20.336;2023-03-31T17:52:48;12.23;;;6.90;;
55330;SDS011;58851;42.984;20.336;2023-03-31T17:55:14;9.65;;;5.38;;
55330;SDS011;58851;42.984;20.336;2023-03-31T17:57:41;16.02;;;8.65;;
55330;SDS011;58851;42.984;20.336;2023-03-31T18:00:07;29.83;;;16.33;;
55330;SDS011;58851;42.984;20.336;2023-03-31T18:02:37;19.20;;;8.93;;
55330;SDS011;58851;42.984;20.336;2023-03-31T18:05:04;11.55;;;6.82;;
55330;SDS011;58851;42.984;20.336;2023-03-31T18:07:32;41.88;;;26.05;;
55330;SDS011;58851;42.984;20.336;2023-03-31T18:09:58;30.25;;;25.42;;